createdAt,value
2022-12-12T00:02:12.090Z,73.98
2022-12-12T00:07:15.484Z,73.38
2022-12-12T00:12:19.687Z,73.63
2022-12-12T00:17:22.451Z,73.43
2022-12-12T00:22:25.288Z,72.93
2022-12-12T00:27:29.446Z,73.17
2022-12-12T00:32:33.315Z,72.89
2022-12-12T00:37:36.136Z,72.81
2022-12-12T00:42:40.283Z,72.96
2022-12-12T00:47:43.228Z,72.71
2022-12-12T00:52:46.097Z,73.03
2022-12-12T00:57:50.260Z,72.78
2022-12-12T01:02:53.359Z,72.65
2022-12-12T01:07:56.139Z,72.80
2022-12-12T01:13:00.273Z,72.85
2022-12-12T01:18:03.079Z,72.65
2022-12-12T01:23:05.835Z,73.13
2022-12-12T01:28:10.648Z,72.71
2022-12-12T01:33:13.440Z,72.75
2022-12-12T01:38:16.224Z,72.89
2022-12-12T01:43:22.428Z,72.59
2022-12-12T01:48:28.389Z,72.66
2022-12-12T01:53:34.250Z,72.50
2022-12-12T01:58:38.467Z,72.72
2022-12-12T02:03:43.169Z,72.71
2022-12-12T02:08:47.611Z,72.47
2022-12-12T02:13:52.129Z,72.73
2022-12-12T02:19:04.761Z,72.61
2022-12-12T02:24:45.861Z,72.51
2022-12-12T02:30:10.064Z,72.63
2022-12-12T02:35:21.965Z,72.41
2022-12-12T02:40:35.661Z,72.23
2022-12-12T02:45:42.212Z,72.26
2022-12-12T02:50:48.960Z,72.13
2022-12-12T02:56:02.768Z,72.13
2022-12-12T03:01:21.060Z,71.98
2022-12-12T03:07:00.789Z,71.93
2022-12-12T03:12:08.788Z,71.83
2022-12-12T03:17:16.985Z,71.41
2022-12-12T03:22:28.147Z,71.16
2022-12-12T03:27:35.587Z,71.26
2022-12-12T03:32:43.714Z,71.45
2022-12-12T03:37:52.286Z,70.86
2022-12-12T03:43:01.671Z,70.71
2022-12-12T03:48:10.462Z,70.83
2022-12-12T03:53:20.361Z,70.96
2022-12-12T03:58:29.959Z,71.05
2022-12-12T04:03:40.495Z,70.95
2022-12-12T04:09:05.384Z,70.57
2022-12-12T04:14:22.597Z,70.85
2022-12-12T04:19:53.821Z,70.45
2022-12-12T04:25:03.557Z,70.14
2022-12-12T04:30:08.318Z,69.87
2022-12-12T04:35:15.007Z,70.39
2022-12-12T04:40:24.403Z,70.28
2022-12-12T04:45:31.546Z,70.30
2022-12-12T04:50:36.237Z,70.13
2022-12-12T04:55:45.500Z,70.26
2022-12-12T05:00:53.686Z,70.28
2022-12-12T05:06:00.643Z,70.16
2022-12-12T05:11:06.741Z,70.44
2022-12-12T05:16:17.558Z,70.29
2022-12-12T05:21:20.544Z,70.63
2022-12-12T05:26:27.204Z,70.63
2022-12-12T05:31:29.956Z,70.26
2022-12-12T05:36:32.783Z,70.48
2022-12-12T05:41:36.888Z,70.33
2022-12-12T05:46:39.702Z,70.09
2022-12-12T05:51:42.445Z,70.54
2022-12-12T05:56:46.536Z,70.50
2022-12-12T06:01:49.346Z,70.04
2022-12-12T06:06:52.167Z,70.42
2022-12-12T06:11:56.413Z,69.86
2022-12-12T06:16:59.231Z,69.85
2022-12-12T06:22:04.841Z,69.98
2022-12-12T06:27:08.959Z,69.85
2022-12-12T06:32:11.739Z,70.07
2022-12-12T06:37:17.432Z,70.24
2022-12-12T06:42:21.677Z,70.66
2022-12-12T06:47:24.415Z,70.40
2022-12-12T06:52:27.145Z,70.19
2022-12-12T06:57:31.360Z,70.19
2022-12-12T07:02:34.267Z,70.49
2022-12-12T07:07:37.122Z,70.59
2022-12-12T07:12:42.636Z,70.63
2022-12-12T07:17:48.230Z,70.45
2022-12-12T07:22:50.967Z,70.27
2022-12-12T07:27:55.168Z,70.23
2022-12-12T07:32:58.099Z,70.30
2022-12-12T07:38:00.867Z,71.16
2022-12-12T07:43:05.371Z,71.85
2022-12-12T07:48:08.120Z,70.94
2022-12-12T07:53:10.888Z,68.91
2022-12-12T07:58:15.007Z,68.33
2022-12-12T08:03:17.769Z,65.37
2022-12-12T08:08:21.038Z,64.97
2022-12-12T08:13:25.215Z,65.03
2022-12-12T08:18:27.982Z,65.46
2022-12-12T08:23:30.779Z,64.64
2022-12-12T08:28:34.979Z,64.68
2022-12-12T08:33:37.941Z,64.87
2022-12-12T08:38:40.782Z,65.77
2022-12-12T08:43:45.856Z,67.27
2022-12-12T08:48:49.584Z,67.05
2022-12-12T08:53:53.811Z,65.38
2022-12-12T08:58:58.514Z,63.90
2022-12-12T09:04:01.343Z,63.20
2022-12-12T09:09:04.214Z,63.76
2022-12-12T09:14:08.366Z,63.97
2022-12-12T09:19:11.242Z,64.67
2022-12-12T09:24:14.047Z,64.72
2022-12-12T09:29:18.531Z,63.79
2022-12-12T09:34:21.310Z,63.28
2022-12-12T09:39:24.051Z,63.37
2022-12-12T09:44:28.165Z,63.02
2022-12-12T09:49:43.746Z,63.82
2022-12-12T09:54:47.184Z,63.87
2022-12-12T09:59:57.768Z,63.27
2022-12-12T10:05:03.817Z,63.58
2022-12-12T10:10:20.451Z,63.21
2022-12-12T10:15:32.310Z,62.63
2022-12-12T10:20:41.504Z,62.80
2022-12-12T10:25:50.776Z,62.54
2022-12-12T10:31:06.323Z,62.44
2022-12-12T10:36:18.615Z,61.79
2022-12-12T10:41:32.892Z,61.81
2022-12-12T10:46:43.431Z,61.93
2022-12-12T10:51:49.352Z,60.97
2022-12-12T10:57:18.048Z,61.54
2022-12-12T11:02:38.665Z,61.66
2022-12-12T11:07:44.716Z,61.48
2022-12-12T11:12:47.512Z,61.35
2022-12-12T11:17:51.735Z,60.52
2022-12-12T11:22:56.714Z,60.68
2022-12-12T11:28:06.364Z,59.89
2022-12-12T11:33:22.089Z,60.24
2022-12-12T11:38:29.472Z,60.31
2022-12-12T11:43:33.665Z,60.77
2022-12-12T11:48:41.849Z,60.16
2022-12-12T11:53:46.144Z,60.64
2022-12-12T11:58:57.360Z,61.21
2022-12-12T12:04:20.024Z,61.75
2022-12-12T12:09:33.672Z,61.27
2022-12-12T12:14:54.644Z,61.56
2022-12-12T12:20:08.197Z,62.13
2022-12-12T12:25:25.083Z,62.45
2022-12-12T12:30:32.503Z,62.87
2022-12-12T12:35:46.904Z,62.94
2022-12-12T12:41:09.618Z,62.87
2022-12-12T12:46:19.238Z,62.94
2022-12-12T12:51:28.360Z,62.65
2022-12-12T12:56:33.223Z,63.10
2022-12-12T13:01:40.260Z,62.94
2022-12-12T13:06:51.468Z,63.21
2022-12-12T13:11:59.799Z,63.71
2022-12-12T13:17:07.201Z,63.50
2022-12-12T13:22:16.552Z,64.08
2022-12-12T13:27:24.665Z,64.44
2022-12-12T13:33:03.630Z,64.31
2022-12-12T13:38:18.944Z,64.22
2022-12-12T13:43:30.276Z,64.85
2022-12-12T13:48:47.281Z,64.22
2022-12-12T13:54:14.427Z,64.27
2022-12-12T13:59:30.445Z,63.90
2022-12-12T14:04:34.767Z,63.75
2022-12-12T14:09:48.471Z,63.92
2022-12-12T14:14:56.840Z,64.07
2022-12-12T14:20:01.155Z,64.33
2022-12-12T14:25:20.294Z,64.85
2022-12-12T14:30:25.408Z,64.93
2022-12-12T14:35:35.475Z,64.82
2022-12-12T14:40:44.668Z,64.76
2022-12-12T14:45:56.890Z,64.98
2022-12-12T14:51:09.079Z,65.54
2022-12-12T14:56:15.584Z,65.82
2022-12-12T15:01:27.951Z,66.77
2022-12-12T15:06:32.172Z,67.11
2022-12-12T15:11:36.749Z,67.59
2022-12-12T15:16:48.416Z,67.46
2022-12-12T15:21:52.129Z,67.13
2022-12-12T15:26:58.850Z,69.47
2022-12-12T15:32:04.982Z,70.09
2022-12-12T15:37:13.452Z,69.45
2022-12-12T15:42:17.672Z,70.31
2022-12-12T15:47:21.752Z,69.82
2022-12-12T15:52:28.326Z,69.62
2022-12-12T15:57:44.568Z,69.28
2022-12-12T16:02:58.585Z,68.82
2022-12-12T16:08:44.190Z,68.54
2022-12-12T16:13:48.403Z,69.11
2022-12-12T16:18:51.465Z,69.39
2022-12-12T16:23:54.277Z,69.28
2022-12-12T16:28:58.442Z,69.08
2022-12-12T16:34:04.458Z,68.91
2022-12-12T16:39:07.381Z,68.76
2022-12-12T16:44:11.529Z,68.43
2022-12-12T16:49:15.609Z,68.38
2022-12-12T16:54:18.866Z,68.10
2022-12-12T16:59:23.098Z,68.29
2022-12-12T17:04:26.609Z,68.60
2022-12-12T17:09:30.277Z,68.82
2022-12-12T17:14:34.517Z,69.08
2022-12-12T17:19:37.393Z,69.12
2022-12-12T17:24:40.395Z,69.66
2022-12-12T17:29:44.807Z,69.55
2022-12-12T17:34:47.616Z,70.14
2022-12-12T17:39:50.403Z,70.65
2022-12-12T17:44:54.581Z,70.49
2022-12-12T17:49:57.778Z,70.87
2022-12-12T17:55:53.786Z,71.39
2022-12-12T18:00:25.792Z,71.48
2022-12-12T18:05:28.744Z,71.81
2022-12-12T18:10:31.541Z,71.63
2022-12-12T18:15:35.681Z,71.92
2022-12-12T18:20:39.935Z,71.88
2022-12-12T18:25:42.756Z,71.89
2022-12-12T18:30:49.721Z,71.57
2022-12-12T18:35:52.688Z,71.86
2022-12-12T18:40:55.529Z,71.52
2022-12-12T18:46:04.839Z,71.58
2022-12-12T18:51:09.207Z,71.75
2022-12-12T18:56:15.917Z,71.39
2022-12-12T19:01:22.701Z,71.81
2022-12-12T19:06:31.645Z,71.49
2022-12-12T19:11:37.366Z,70.86
2022-12-12T19:16:42.062Z,70.47
2022-12-12T19:21:46.313Z,70.36
2022-12-12T19:26:49.753Z,70.46
2022-12-12T19:31:58.669Z,70.79
2022-12-12T19:37:02.635Z,71.05
2022-12-12T19:42:05.437Z,71.02
2022-12-12T19:47:09.625Z,70.98
2022-12-12T19:52:14.567Z,71.01
2022-12-12T19:57:17.679Z,71.14
2022-12-12T20:02:21.817Z,71.55
2022-12-12T20:07:24.589Z,71.23
2022-12-12T20:12:27.362Z,71.29
2022-12-12T20:17:31.434Z,71.31
2022-12-12T20:22:34.290Z,71.45
2022-12-12T20:27:37.068Z,71.48
2022-12-12T20:32:41.183Z,71.48
2022-12-12T20:37:44.100Z,71.52
2022-12-12T20:42:54.136Z,71.40
2022-12-12T20:48:04.391Z,71.32
2022-12-12T20:53:10.911Z,71.29
2022-12-12T20:58:13.692Z,71.04
2022-12-12T21:03:18.051Z,71.15
2022-12-12T21:08:21.340Z,71.09
2022-12-12T21:13:25.388Z,71.11
2022-12-12T21:18:31.739Z,71.00
2022-12-12T21:23:35.014Z,70.96
2022-12-12T21:28:38.189Z,71.20
2022-12-12T21:33:42.418Z,70.87
2022-12-12T21:38:45.572Z,71.05
2022-12-12T21:43:48.853Z,71.57
2022-12-12T21:49:08.331Z,71.43
2022-12-12T21:54:13.088Z,71.27
2022-12-12T21:59:17.080Z,71.35
2022-12-12T22:04:21.234Z,71.28
2022-12-12T22:09:24.351Z,71.04
2022-12-12T22:14:27.369Z,70.96
2022-12-12T22:19:31.903Z,70.55
2022-12-12T22:24:34.656Z,70.86
2022-12-12T22:29:37.635Z,71.33
2022-12-12T22:34:41.773Z,71.39
2022-12-12T22:39:44.741Z,71.43
2022-12-12T22:44:47.589Z,71.19
2022-12-12T22:49:52.576Z,71.50
2022-12-12T22:54:55.434Z,71.36
2022-12-12T22:59:58.206Z,71.39
2022-12-12T23:05:02.348Z,70.96
2022-12-12T23:10:05.931Z,70.81
2022-12-12T23:15:09.856Z,70.42
2022-12-12T23:20:14.020Z,70.58
2022-12-12T23:25:17.259Z,70.54
2022-12-12T23:30:20.244Z,70.34
2022-12-12T23:35:24.315Z,70.56
2022-12-12T23:40:27.111Z,70.57
2022-12-12T23:45:30.022Z,70.44
2022-12-12T23:50:34.655Z,70.89
2022-12-12T23:55:37.413Z,71.28
